Página principal
METAR-TAF:

METAR-TAF

Aeroportos :

Harbin, China

Aeroporto Internacional Harbin Taiping

latitude: 45-45N, longitude: 126-46E, altura: 143 m

Observação actual do tempo

O boletim foi feito há 36 minutos, às 13:00 UTC
Vento 4 kt de nordeste, variando entre nor-nordeste e este
Temperatura 3°C
Humidade 52%
Pressão 1019 hPa
Visibilidade: 8000 m

METAR: ZYHB 251300Z 05002MPS 020V080 8000 NSC 03/M06 Q1019 NOSIG

Hora: 21:36 (13:36 UTC)

Previsão

O boletim foi feito há 4 horas e 15 minutos, às 09:21 UTC
Previsão válida de 25 às 12 UTC a 26 às 12 UTC
Vento 6 kt de norte
Visibilidade: 6000 m
Poucas nuvensa uma altura de 3000 ft

TAF: ZYHB 250921Z 2512/2612 36003MPS 6000 FEW030 TX09/2606Z TNM04/21Z

Observações e previsões do tempo de mais de 4000 aeroportos (mensagens METAR e TAF).

As estações disponíveis são os pontos amarelos e vermelhos sobre o mapa.

Mova o rato sobre o mapa para ver o nome da estação.

Depois clique no ponto para visualizar as observações e previsões meteorológicas.

Para alterar o mapa : clique nos botões verdes com uma cruz preta para aumentar o zoom; no botão verde com uma pitada de zoom; ou nas setas verdes para mapas adjacentes.


METAR-TAF: